createdAt,value
2017-08-30T00:01:50.742Z,9.07
2017-08-30T00:04:18.282Z,9.63
2017-08-30T00:06:45.802Z,9.13
2017-08-30T00:09:13.344Z,10.50
2017-08-30T00:11:40.863Z,8.90
2017-08-30T00:14:08.403Z,8.87
2017-08-30T00:16:35.922Z,9.67
2017-08-30T00:19:03.475Z,8.60
2017-08-30T00:21:31.002Z,8.30
2017-08-30T00:23:58.519Z,8.30
2017-08-30T00:26:27.990Z,7.97
2017-08-30T00:28:56.279Z,8.23
2017-08-30T00:31:23.828Z,10.10
2017-08-30T00:33:51.359Z,9.47
2017-08-30T00:36:18.902Z,8.70
2017-08-30T00:38:46.435Z,9.47
2017-08-30T00:41:13.983Z,10.60
2017-08-30T00:43:41.511Z,10.30
2017-08-30T00:46:09.813Z,11.37
2017-08-30T00:48:37.339Z,9.80
2017-08-30T00:51:04.891Z,10.30
2017-08-30T00:53:32.421Z,12.90
2017-08-30T00:55:59.953Z,11.20
2017-08-30T00:58:27.505Z,9.57
2017-08-30T01:00:55.034Z,10.50
2017-08-30T01:03:22.579Z,9.60
2017-08-30T01:05:50.098Z,9.90
2017-08-30T01:08:17.639Z,9.10
2017-08-30T01:10:45.159Z,8.97
2017-08-30T01:13:12.703Z,8.83
2017-08-30T01:15:40.229Z,8.90
2017-08-30T01:18:07.774Z,9.50
2017-08-30T01:20:35.294Z,8.57
2017-08-30T01:23:02.831Z,10.40
2017-08-30T01:25:30.385Z,10.10
2017-08-30T01:27:57.906Z,10.93
2017-08-30T01:30:25.446Z,9.17
2017-08-30T01:32:52.974Z,9.17
2017-08-30T01:35:20.514Z,9.50
2017-08-30T01:37:48.042Z,9.50
2017-08-30T01:40:15.599Z,9.70
2017-08-30T01:42:43.132Z,10.30
2017-08-30T01:45:10.652Z,8.33
2017-08-30T01:47:38.190Z,8.97
2017-08-30T01:50:05.707Z,8.30
2017-08-30T01:52:33.246Z,7.23
2017-08-30T01:55:00.771Z,6.57
2017-08-30T01:57:28.312Z,7.43
2017-08-30T01:59:55.831Z,7.90
2017-08-30T02:02:23.371Z,9.23
2017-08-30T02:04:50.894Z,9.50
2017-08-30T02:07:18.445Z,9.80
2017-08-30T02:09:45.970Z,9.17
2017-08-30T02:12:13.491Z,8.50
2017-08-30T02:14:41.040Z,9.30
2017-08-30T02:17:08.562Z,11.03
2017-08-30T02:19:36.120Z,10.77
2017-08-30T02:22:03.654Z,10.70
2017-08-30T02:24:31.198Z,10.50
2017-08-30T02:26:58.723Z,8.83
2017-08-30T02:29:26.262Z,8.70
2017-08-30T02:31:53.787Z,8.70
2017-08-30T02:34:21.314Z,9.53
2017-08-30T02:36:48.870Z,10.80
2017-08-30T02:39:16.398Z,12.77
2017-08-30T02:41:43.947Z,9.87
2017-08-30T02:44:11.473Z,10.20
2017-08-30T02:46:39.024Z,10.73
2017-08-30T02:49:06.553Z,12.23
2017-08-30T02:51:34.094Z,10.87
2017-08-30T02:54:01.624Z,9.77
2017-08-30T02:56:29.155Z,10.07
2017-08-30T02:58:56.695Z,9.57
2017-08-30T03:01:24.216Z,8.10
2017-08-30T03:03:51.757Z,7.77
2017-08-30T03:06:21.099Z,6.63
2017-08-30T03:08:48.643Z,6.90
2017-08-30T03:11:16.166Z,7.87
2017-08-30T03:13:43.718Z,8.97
2017-08-30T03:16:11.243Z,7.00
2017-08-30T03:18:38.772Z,7.30
2017-08-30T03:21:06.315Z,7.00
2017-08-30T03:23:33.833Z,7.57
2017-08-30T03:26:01.375Z,7.07
2017-08-30T03:28:28.917Z,7.50
2017-08-30T03:30:56.452Z,6.93
2017-08-30T03:33:23.970Z,6.10
2017-08-30T03:35:51.509Z,11.77
2017-08-30T03:38:19.029Z,9.33
2017-08-30T03:40:46.569Z,11.20
2017-08-30T03:43:14.106Z,11.27
2017-08-30T03:45:41.631Z,11.23
2017-08-30T03:48:09.169Z,10.50
2017-08-30T03:50:36.690Z,10.13
2017-08-30T03:53:04.234Z,10.47
2017-08-30T03:55:31.757Z,9.80
2017-08-30T03:57:59.302Z,10.33
2017-08-30T04:00:26.829Z,10.67
2017-08-30T04:02:54.366Z,9.10
2017-08-30T04:05:21.887Z,9.03
2017-08-30T04:07:49.439Z,11.60
2017-08-30T04:10:16.971Z,10.20
2017-08-30T04:12:44.494Z,9.20
2017-08-30T04:15:12.034Z,9.00
2017-08-30T04:17:39.564Z,9.37
2017-08-30T04:20:07.103Z,9.40
2017-08-30T04:22:34.627Z,9.57
2017-08-30T04:25:02.175Z,9.60
2017-08-30T04:27:29.708Z,9.60
2017-08-30T04:29:57.259Z,11.27
2017-08-30T04:32:24.795Z,10.20
2017-08-30T04:34:52.311Z,9.27
2017-08-30T04:37:19.845Z,10.40
2017-08-30T04:39:47.379Z,11.83
2017-08-30T04:42:14.930Z,10.40
2017-08-30T04:44:43.219Z,9.23
2017-08-30T04:47:10.759Z,9.53
2017-08-30T04:49:38.335Z,10.37
2017-08-30T04:52:05.894Z,11.53
2017-08-30T04:54:33.428Z,10.33
2017-08-30T04:57:00.959Z,10.13
2017-08-30T04:59:28.498Z,10.77
2017-08-30T05:01:56.075Z,11.40
2017-08-30T05:04:23.638Z,10.70
2017-08-30T05:06:51.184Z,10.40
2017-08-30T05:09:18.727Z,9.47
2017-08-30T05:11:46.253Z,8.30
2017-08-30T05:14:13.803Z,8.37
2017-08-30T05:16:41.343Z,10.37
2017-08-30T05:19:08.902Z,9.47
2017-08-30T05:21:36.422Z,10.80
2017-08-30T05:24:03.950Z,11.07
2017-08-30T05:26:31.509Z,9.83
2017-08-30T05:28:59.028Z,9.30
2017-08-30T05:31:26.562Z,8.10
2017-08-30T05:33:54.078Z,6.77
2017-08-30T05:36:21.618Z,8.90
2017-08-30T05:38:49.155Z,9.03
2017-08-30T05:41:16.706Z,9.37
2017-08-30T05:43:44.234Z,10.90
2017-08-30T05:46:11.779Z,10.87
2017-08-30T05:48:39.297Z,11.20
2017-08-30T05:51:06.848Z,10.67
2017-08-30T05:53:34.374Z,12.90
2017-08-30T05:56:01.903Z,13.10
2017-08-30T05:58:29.455Z,13.23
2017-08-30T06:00:56.989Z,11.60
2017-08-30T06:03:24.530Z,13.30
2017-08-30T06:05:52.061Z,11.93
2017-08-30T06:08:19.603Z,11.30
2017-08-30T06:10:47.127Z,12.27
2017-08-30T06:13:14.678Z,12.57
2017-08-30T06:15:42.213Z,13.17
2017-08-30T06:18:09.758Z,12.07
2017-08-30T06:20:37.282Z,14.00
2017-08-30T06:23:04.822Z,13.60
2017-08-30T06:25:32.375Z,14.30
2017-08-30T06:27:59.900Z,12.80
2017-08-30T06:30:27.454Z,13.07
2017-08-30T06:32:54.974Z,11.67
2017-08-30T06:35:22.534Z,12.57
2017-08-30T06:37:50.055Z,13.47
2017-08-30T06:40:17.608Z,12.20
2017-08-30T06:42:45.135Z,11.80
2017-08-30T06:45:12.682Z,13.00
2017-08-30T06:47:40.215Z,10.87
2017-08-30T06:50:07.743Z,10.10
2017-08-30T06:52:35.290Z,10.90
2017-08-30T06:55:02.815Z,10.93
2017-08-30T06:57:30.359Z,12.03
2017-08-30T06:59:57.888Z,10.87
2017-08-30T07:02:25.438Z,11.23
2017-08-30T07:04:52.963Z,10.90
2017-08-30T07:07:20.505Z,11.07
2017-08-30T07:09:48.035Z,9.90
2017-08-30T07:12:15.578Z,9.60
2017-08-30T07:14:43.111Z,11.50
2017-08-30T07:17:10.659Z,9.70
2017-08-30T07:19:38.184Z,10.23
2017-08-30T07:22:05.706Z,9.40
2017-08-30T07:24:33.251Z,9.93
2017-08-30T07:27:00.771Z,9.80
2017-08-30T07:29:28.312Z,9.70
2017-08-30T07:31:55.836Z,9.90
2017-08-30T07:34:23.377Z,10.20
2017-08-30T07:36:50.899Z,10.57
2017-08-30T07:39:18.443Z,10.10
2017-08-30T07:41:45.963Z,8.90
2017-08-30T07:44:13.503Z,9.33
2017-08-30T07:46:41.017Z,9.20
2017-08-30T07:49:08.563Z,10.23
2017-08-30T07:51:36.089Z,9.97
2017-08-30T07:54:03.650Z,9.40
2017-08-30T07:56:31.171Z,8.50
2017-08-30T07:58:58.693Z,9.80
2017-08-30T08:01:26.235Z,10.23
2017-08-30T08:03:53.759Z,7.43
2017-08-30T08:06:21.304Z,9.13
2017-08-30T08:08:48.821Z,9.10
2017-08-30T08:11:16.363Z,8.30
2017-08-30T08:13:43.895Z,9.30
2017-08-30T08:16:11.441Z,8.70
2017-08-30T08:18:38.964Z,8.97
2017-08-30T08:21:06.507Z,9.47
2017-08-30T08:23:34.023Z,8.80
2017-08-30T08:26:01.570Z,9.10
2017-08-30T08:28:29.092Z,8.70
2017-08-30T08:30:56.638Z,8.43
2017-08-30T08:33:24.160Z,8.83
2017-08-30T08:35:51.683Z,9.33
2017-08-30T08:38:19.226Z,8.70
2017-08-30T08:40:46.753Z,8.57
2017-08-30T08:43:14.291Z,9.27
2017-08-30T08:45:41.819Z,8.60
2017-08-30T08:48:09.362Z,8.90
2017-08-30T08:50:36.896Z,9.67
2017-08-30T08:53:04.430Z,8.50
2017-08-30T08:55:31.941Z,8.00
2017-08-30T08:57:59.477Z,7.80
2017-08-30T09:00:26.995Z,8.63
2017-08-30T09:02:54.509Z,7.90
2017-08-30T09:05:22.045Z,8.20
2017-08-30T09:07:49.566Z,8.87
2017-08-30T09:10:17.111Z,8.53
2017-08-30T09:12:44.638Z,8.77
2017-08-30T09:15:12.173Z,8.70
2017-08-30T09:17:39.691Z,8.90
2017-08-30T09:20:07.235Z,8.50
2017-08-30T09:22:34.758Z,8.10
2017-08-30T09:25:02.319Z,8.47
2017-08-30T09:27:29.837Z,8.20
2017-08-30T09:29:57.374Z,8.60
2017-08-30T09:32:24.900Z,8.00
2017-08-30T09:34:52.431Z,8.73
2017-08-30T09:37:19.978Z,7.27
2017-08-30T09:39:47.503Z,7.60
2017-08-30T09:42:15.075Z,7.40
2017-08-30T09:44:42.599Z,8.03
2017-08-30T09:47:10.147Z,8.40
2017-08-30T09:49:37.674Z,8.00
2017-08-30T09:52:05.218Z,7.63
2017-08-30T09:54:32.734Z,7.93
2017-08-30T09:57:00.271Z,7.23
2017-08-30T09:59:27.790Z,7.87
2017-08-30T10:01:55.326Z,7.93
2017-08-30T10:04:22.842Z,7.23
2017-08-30T10:06:50.379Z,7.93
2017-08-30T10:09:17.894Z,7.83
2017-08-30T10:11:45.438Z,7.07
2017-08-30T10:14:12.959Z,7.13
2017-08-30T10:16:40.482Z,7.70
2017-08-30T10:19:08.014Z,7.40
2017-08-30T10:21:35.537Z,8.00
2017-08-30T10:24:03.102Z,7.77
2017-08-30T10:26:30.621Z,7.80
2017-08-30T10:28:58.166Z,7.23
2017-08-30T10:31:26.530Z,7.63
2017-08-30T10:33:54.066Z,7.57
2017-08-30T10:36:21.591Z,6.83
2017-08-30T10:38:49.130Z,7.43
2017-08-30T10:41:16.661Z,6.90
2017-08-30T10:43:44.210Z,7.47
2017-08-30T10:46:11.733Z,7.00
2017-08-30T10:48:39.267Z,7.20
2017-08-30T10:51:06.803Z,8.13
2017-08-30T10:53:34.322Z,6.90
2017-08-30T10:56:01.857Z,7.30
2017-08-30T10:58:29.377Z,7.43
2017-08-30T11:00:56.920Z,7.87
2017-08-30T11:03:24.449Z,8.10
2017-08-30T11:05:51.998Z,8.80
2017-08-30T11:08:19.523Z,7.87
2017-08-30T11:10:47.063Z,7.63
2017-08-30T11:13:14.587Z,7.10
2017-08-30T11:15:42.122Z,8.17
2017-08-30T11:18:09.638Z,8.20
2017-08-30T11:20:37.188Z,8.13
2017-08-30T11:23:04.713Z,7.90
2017-08-30T11:25:32.258Z,8.30
2017-08-30T11:27:59.771Z,7.93
2017-08-30T11:30:27.334Z,7.77
2017-08-30T11:32:54.874Z,9.40
2017-08-30T11:35:22.398Z,8.87
2017-08-30T11:37:49.938Z,7.77
2017-08-30T11:40:17.459Z,7.80
2017-08-30T11:42:45.002Z,8.33
2017-08-30T11:45:12.523Z,8.03
2017-08-30T11:47:40.066Z,8.30
2017-08-30T11:50:07.583Z,8.87
2017-08-30T11:52:35.134Z,7.47
2017-08-30T11:55:02.668Z,8.70
2017-08-30T11:57:30.222Z,8.00
2017-08-30T11:59:57.742Z,8.93
2017-08-30T12:02:25.267Z,7.63
2017-08-30T12:04:52.810Z,8.20
2017-08-30T12:07:20.331Z,7.80
2017-08-30T12:09:47.872Z,7.80
2017-08-30T12:12:15.394Z,7.77
2017-08-30T12:14:42.932Z,7.80
2017-08-30T12:17:10.454Z,8.10
2017-08-30T12:19:37.988Z,7.67
2017-08-30T12:22:05.505Z,7.77
2017-08-30T12:24:33.043Z,8.47
2017-08-30T12:27:00.560Z,9.00
2017-08-30T12:29:28.111Z,7.97
2017-08-30T12:31:55.633Z,7.07
2017-08-30T12:34:23.154Z,8.83
2017-08-30T12:36:56.466Z,7.63
2017-08-30T12:39:29.810Z,9.97
2017-08-30T12:41:57.346Z,8.53
2017-08-30T12:44:24.863Z,8.20
2017-08-30T12:46:52.417Z,8.90
2017-08-30T12:49:19.942Z,8.37
2017-08-30T12:51:47.479Z,7.67
2017-08-30T12:54:15.007Z,9.20
2017-08-30T12:56:42.547Z,7.90
2017-08-30T12:59:10.075Z,8.70
2017-08-30T13:01:37.627Z,8.00
2017-08-30T13:04:05.151Z,7.33
2017-08-30T13:06:32.700Z,6.80
2017-08-30T13:09:00.222Z,7.17
2017-08-30T13:11:27.743Z,7.60
2017-08-30T13:13:55.278Z,8.37
2017-08-30T13:16:22.802Z,8.10
2017-08-30T13:18:50.347Z,7.33
2017-08-30T13:21:17.876Z,7.97
2017-08-30T13:23:45.423Z,7.10
2017-08-30T13:26:12.948Z,7.30
2017-08-30T13:28:40.486Z,7.97
2017-08-30T13:31:08.011Z,7.90
2017-08-30T13:33:35.551Z,6.90
2017-08-30T13:36:03.078Z,7.80
2017-08-30T13:38:30.624Z,8.20
2017-08-30T13:40:58.143Z,6.53
2017-08-30T13:43:25.693Z,7.53
2017-08-30T13:45:53.222Z,7.30
2017-08-30T13:48:20.746Z,7.00
2017-08-30T13:50:48.296Z,7.60
2017-08-30T13:53:15.823Z,5.90
2017-08-30T13:55:43.371Z,8.60
2017-08-30T13:58:10.892Z,7.47
2017-08-30T14:00:38.443Z,6.73
2017-08-30T14:03:05.964Z,7.13
2017-08-30T14:05:33.511Z,7.27
2017-08-30T14:08:01.034Z,6.90
2017-08-30T14:10:28.581Z,6.67
2017-08-30T14:12:56.104Z,7.03
2017-08-30T14:15:23.647Z,7.53
2017-08-30T14:17:51.163Z,7.27
2017-08-30T14:20:18.703Z,7.83
2017-08-30T14:22:46.222Z,8.07
2017-08-30T14:25:13.746Z,7.50
2017-08-30T14:27:41.312Z,7.10
2017-08-30T14:30:08.845Z,6.67
2017-08-30T14:32:36.383Z,8.07
2017-08-30T14:35:03.904Z,7.93
2017-08-30T14:37:31.456Z,6.53
2017-08-30T14:39:58.979Z,7.47
2017-08-30T14:42:26.522Z,7.20
2017-08-30T14:44:54.048Z,7.50
2017-08-30T14:47:21.593Z,6.90
2017-08-30T14:49:49.193Z,7.37
2017-08-30T14:52:16.734Z,6.90
2017-08-30T14:54:44.257Z,7.57
2017-08-30T14:57:11.817Z,7.70
2017-08-30T14:59:39.347Z,6.80
2017-08-30T15:02:06.875Z,8.00
2017-08-30T15:04:34.423Z,9.50
2017-08-30T15:07:01.948Z,7.87
2017-08-30T15:09:29.488Z,7.70
2017-08-30T15:11:57.007Z,9.73
2017-08-30T15:14:24.551Z,7.83
2017-08-30T15:16:52.070Z,7.57
2017-08-30T15:19:19.618Z,8.50
2017-08-30T15:21:47.139Z,7.70
2017-08-30T15:24:14.686Z,8.30
2017-08-30T15:26:42.207Z,8.17
2017-08-30T15:29:09.749Z,7.97
2017-08-30T15:31:37.263Z,8.07
2017-08-30T15:34:04.803Z,7.20
2017-08-30T15:36:32.333Z,7.70
2017-08-30T15:38:59.899Z,8.20
2017-08-30T15:41:27.418Z,8.50
2017-08-30T15:43:54.942Z,9.40
2017-08-30T15:46:22.481Z,9.40
2017-08-30T15:48:50.075Z,9.10
2017-08-30T15:51:17.614Z,8.07
2017-08-30T15:53:45.138Z,8.10
2017-08-30T15:56:12.682Z,8.57
2017-08-30T15:58:40.198Z,8.70
2017-08-30T16:01:07.741Z,7.40
2017-08-30T16:03:35.265Z,9.23
2017-08-30T16:06:02.819Z,8.63
2017-08-30T16:08:30.343Z,8.60
2017-08-30T16:10:57.884Z,8.93
2017-08-30T16:13:25.402Z,8.00
2017-08-30T16:15:52.945Z,9.50
2017-08-30T16:18:20.470Z,8.63
2017-08-30T16:20:48.003Z,13.77
2017-08-30T16:23:15.543Z,8.10
2017-08-30T16:25:44.555Z,9.00
2017-08-30T16:28:14.053Z,8.20
2017-08-30T16:30:42.954Z,8.10
2017-08-30T16:33:12.998Z,7.97
2017-08-30T16:35:41.671Z,7.77
2017-08-30T16:38:11.494Z,7.90
2017-08-30T16:40:39.281Z,8.30
2017-08-30T16:43:08.477Z,8.83
2017-08-30T16:45:36.596Z,8.00
2017-08-30T16:48:06.162Z,8.07
2017-08-30T16:50:35.168Z,8.63
2017-08-30T16:53:03.748Z,9.43
2017-08-30T16:55:31.858Z,9.53
2017-08-30T16:58:00.970Z,8.80
2017-08-30T17:00:28.654Z,9.43
2017-08-30T17:02:56.183Z,9.77
2017-08-30T17:05:23.728Z,8.97
2017-08-30T17:07:51.254Z,9.00
2017-08-30T17:10:18.795Z,8.80
2017-08-30T17:12:46.341Z,9.77
2017-08-30T17:15:13.878Z,9.30
2017-08-30T17:17:41.398Z,9.77
2017-08-30T17:20:09.021Z,9.73
2017-08-30T17:22:36.555Z,9.53
2017-08-30T17:25:04.082Z,8.90
2017-08-30T17:27:31.629Z,8.53
2017-08-30T17:29:59.924Z,9.60
2017-08-30T17:32:27.481Z,10.07
2017-08-30T17:34:55.008Z,9.50
2017-08-30T17:37:22.570Z,10.03
2017-08-30T17:39:50.095Z,10.33
2017-08-30T17:42:17.635Z,10.03
2017-08-30T17:44:45.164Z,9.70
2017-08-30T17:47:12.713Z,11.27
2017-08-30T17:49:40.242Z,10.70
2017-08-30T17:52:07.782Z,9.70
2017-08-30T17:54:35.302Z,9.80
2017-08-30T17:57:02.855Z,10.67
2017-08-30T17:59:30.386Z,10.87
2017-08-30T18:01:57.903Z,9.73
2017-08-30T18:04:25.447Z,10.37
2017-08-30T18:06:52.987Z,10.50
2017-08-30T18:09:20.519Z,9.00
2017-08-30T18:11:48.037Z,9.77
2017-08-30T18:14:15.581Z,11.27
2017-08-30T18:16:43.104Z,9.70
2017-08-30T18:19:10.646Z,10.23
2017-08-30T18:21:38.170Z,8.90
2017-08-30T18:24:05.723Z,10.27
2017-08-30T18:26:33.247Z,9.30
2017-08-30T18:29:00.798Z,11.60
2017-08-30T18:31:28.323Z,11.03
2017-08-30T18:33:55.851Z,10.63
2017-08-30T18:36:23.394Z,11.73
2017-08-30T18:38:50.921Z,10.97
2017-08-30T18:41:18.467Z,10.70
2017-08-30T18:43:46.004Z,9.80
2017-08-30T18:46:13.554Z,11.10
2017-08-30T18:48:41.085Z,10.33
2017-08-30T18:51:08.634Z,9.60
2017-08-30T18:53:36.161Z,9.60
2017-08-30T18:56:03.707Z,10.10
2017-08-30T18:58:31.245Z,11.27
2017-08-30T19:00:58.787Z,10.90
2017-08-30T19:03:26.322Z,10.57
2017-08-30T19:05:53.879Z,10.17
2017-08-30T19:08:21.411Z,10.63
2017-08-30T19:10:48.943Z,10.00
2017-08-30T19:13:16.490Z,9.80
2017-08-30T19:15:44.039Z,10.77
2017-08-30T19:18:11.554Z,8.93
2017-08-30T19:20:39.107Z,10.53
2017-08-30T19:23:06.635Z,10.10
2017-08-30T19:25:34.163Z,11.20
2017-08-30T19:28:01.711Z,11.00
2017-08-30T19:30:29.230Z,10.60
2017-08-30T19:32:56.779Z,11.43
2017-08-30T19:35:24.304Z,9.80
2017-08-30T19:37:51.851Z,10.00
2017-08-30T19:40:19.372Z,9.80
2017-08-30T19:42:46.933Z,10.40
2017-08-30T19:45:14.459Z,11.10
2017-08-30T19:47:42.012Z,11.33
2017-08-30T19:50:09.538Z,9.37
2017-08-30T19:52:37.100Z,9.53
2017-08-30T19:55:04.622Z,9.87
2017-08-30T19:57:32.150Z,10.60
2017-08-30T19:59:59.698Z,11.23
2017-08-30T20:02:27.227Z,11.07
2017-08-30T20:04:54.770Z,11.73
2017-08-30T20:07:22.290Z,10.17
2017-08-30T20:09:49.834Z,12.10
2017-08-30T20:12:17.361Z,11.60
2017-08-30T20:14:44.912Z,10.60
2017-08-30T20:17:12.443Z,10.40
2017-08-30T20:19:40.002Z,10.60
2017-08-30T20:22:07.530Z,10.47
2017-08-30T20:24:35.055Z,10.47
2017-08-30T20:27:02.607Z,10.10
2017-08-30T20:29:30.130Z,9.67
2017-08-30T20:31:57.686Z,10.10
2017-08-30T20:34:25.209Z,13.03
2017-08-30T20:36:52.754Z,10.40
2017-08-30T20:39:20.285Z,9.80
2017-08-30T20:41:47.836Z,11.43
2017-08-30T20:44:15.365Z,11.30
2017-08-30T20:46:42.921Z,11.10
2017-08-30T20:49:10.447Z,11.10
2017-08-30T20:51:37.994Z,9.83
2017-08-30T20:54:05.514Z,9.50
2017-08-30T20:56:33.058Z,10.77
2017-08-30T20:59:00.582Z,10.60
2017-08-30T21:01:28.131Z,10.00
2017-08-30T21:03:55.659Z,10.47
2017-08-30T21:06:23.204Z,9.70
2017-08-30T21:08:51.050Z,9.93
2017-08-30T21:11:18.630Z,9.90
2017-08-30T21:13:46.152Z,11.30
2017-08-30T21:16:13.678Z,10.40
2017-08-30T21:18:41.222Z,11.60
2017-08-30T21:21:08.747Z,11.17
2017-08-30T21:23:36.303Z,10.60
2017-08-30T21:26:03.829Z,11.03
2017-08-30T21:28:31.375Z,12.00
2017-08-30T21:30:58.908Z,10.40
2017-08-30T21:33:26.467Z,10.33
2017-08-30T21:35:53.986Z,9.70
2017-08-30T21:38:21.516Z,11.60
2017-08-30T21:40:49.060Z,11.10
2017-08-30T21:43:16.578Z,9.97
2017-08-30T21:45:44.128Z,9.80
2017-08-30T21:48:11.657Z,11.67
2017-08-30T21:50:39.206Z,8.80
2017-08-30T21:53:06.730Z,10.23
2017-08-30T21:55:34.267Z,9.70
2017-08-30T21:58:01.786Z,10.40
2017-08-30T22:00:29.335Z,9.80
2017-08-30T22:02:56.854Z,8.20
2017-08-30T22:05:24.374Z,9.60
2017-08-30T22:07:51.923Z,8.50
2017-08-30T22:10:19.447Z,8.30
2017-08-30T22:12:46.991Z,8.37
2017-08-30T22:15:14.517Z,11.10
2017-08-30T22:17:42.065Z,21.67
2017-08-30T22:20:09.578Z,8.70
2017-08-30T22:22:37.122Z,6.80
2017-08-30T22:25:04.651Z,6.70
2017-08-30T22:27:32.199Z,7.47
2017-08-30T22:29:59.722Z,7.10
2017-08-30T22:32:27.278Z,7.50
2017-08-30T22:34:54.798Z,6.37
2017-08-30T22:37:22.318Z,7.43
2017-08-30T22:39:49.859Z,6.80
2017-08-30T22:42:17.378Z,5.67
2017-08-30T22:44:44.919Z,6.40
2017-08-30T22:47:12.439Z,5.50
2017-08-30T22:49:39.983Z,5.60
2017-08-30T22:52:07.502Z,5.57
2017-08-30T22:54:35.042Z,5.87
2017-08-30T22:57:02.554Z,5.33
2017-08-30T22:59:30.085Z,4.97
2017-08-30T23:01:57.602Z,6.60
2017-08-30T23:04:25.150Z,5.57
2017-08-30T23:06:52.674Z,5.60
2017-08-30T23:09:20.191Z,4.93
2017-08-30T23:11:47.735Z,5.20
2017-08-30T23:14:15.249Z,5.77
2017-08-30T23:16:42.790Z,5.60
2017-08-30T23:19:10.312Z,5.90
2017-08-30T23:21:37.857Z,6.03
2017-08-30T23:24:05.379Z,5.80
2017-08-30T23:26:32.918Z,5.17
2017-08-30T23:29:00.439Z,6.03
2017-08-30T23:31:27.974Z,5.97
2017-08-30T23:33:55.495Z,6.33
2017-08-30T23:36:23.021Z,6.07
2017-08-30T23:38:50.568Z,5.90
2017-08-30T23:41:18.090Z,5.40
2017-08-30T23:43:45.640Z,6.07
2017-08-30T23:46:13.170Z,6.33
2017-08-30T23:48:40.707Z,5.67
2017-08-30T23:51:08.236Z,5.57
2017-08-30T23:53:35.783Z,6.10
2017-08-30T23:56:03.300Z,6.00
2017-08-30T23:58:30.830Z,6.27
